createdAt,value
2019-02-21T00:01:37.939Z,43.90
2019-02-21T00:04:27.558Z,45.60
2019-02-21T00:07:16.726Z,43.40
2019-02-21T00:10:06.514Z,43.90
2019-02-21T00:12:56.018Z,43.23
2019-02-21T00:15:45.521Z,42.20
2019-02-21T00:18:34.990Z,45.10
2019-02-21T00:21:24.277Z,44.50
2019-02-21T00:24:13.871Z,45.03
2019-02-21T00:27:03.324Z,42.40
2019-02-21T00:29:52.642Z,44.90
2019-02-21T00:32:42.211Z,43.80
2019-02-21T00:35:32.838Z,43.33
2019-02-21T00:38:22.180Z,44.53
2019-02-21T00:41:12.181Z,42.95
2019-02-21T00:44:01.503Z,44.30
2019-02-21T00:46:51.069Z,45.80
2019-02-21T00:49:40.598Z,43.80
2019-02-21T00:52:31.500Z,44.70
2019-02-21T00:55:20.975Z,44.70
2019-02-21T00:58:10.586Z,42.67
2019-02-21T01:00:59.840Z,42.77
2019-02-21T01:03:49.165Z,41.10
2019-02-21T01:06:38.349Z,43.33
2019-02-21T01:09:27.643Z,42.77
2019-02-21T01:12:17.093Z,41.23
2019-02-21T01:15:08.405Z,40.83
2019-02-21T01:17:57.784Z,42.43
2019-02-21T01:20:47.860Z,40.57
2019-02-21T01:23:37.479Z,38.50
2019-02-21T01:26:26.927Z,40.33
2019-02-21T01:29:16.190Z,39.77
2019-02-21T01:32:05.680Z,41.30
2019-02-21T01:34:55.267Z,41.67
2019-02-21T01:37:45.670Z,40.80
2019-02-21T01:40:34.894Z,40.50
2019-02-21T01:43:24.358Z,39.53
2019-02-21T01:46:13.712Z,40.37
2019-02-21T01:49:03.175Z,38.47
2019-02-21T01:51:52.475Z,39.43
2019-02-21T01:54:41.905Z,38.40
2019-02-21T01:57:31.606Z,38.10
2019-02-21T02:00:20.828Z,38.10
2019-02-21T02:03:10.333Z,38.00
2019-02-21T02:05:59.926Z,38.47
2019-02-21T02:08:49.629Z,37.80
2019-02-21T02:11:38.818Z,36.77
2019-02-21T02:14:28.579Z,38.60
2019-02-21T02:17:17.857Z,36.25
2019-02-21T02:20:07.691Z,34.40
2019-02-21T02:22:57.187Z,36.67
2019-02-21T02:25:46.748Z,35.70
2019-02-21T02:28:36.114Z,36.13
2019-02-21T02:31:25.547Z,38.80
2019-02-21T02:34:15.179Z,33.17
2019-02-21T02:37:04.704Z,35.20
2019-02-21T02:39:54.998Z,35.20
2019-02-21T02:42:46.147Z,33.00
2019-02-21T02:45:35.431Z,35.38
2019-02-21T02:48:24.950Z,35.57
2019-02-21T02:51:14.666Z,35.50
2019-02-21T02:54:04.115Z,34.67
2019-02-21T02:56:53.579Z,34.17
2019-02-21T02:59:42.852Z,33.97
2019-02-21T03:02:32.417Z,32.10
2019-02-21T03:05:21.718Z,33.87
2019-02-21T03:08:11.209Z,33.23
2019-02-21T03:11:00.970Z,32.20
2019-02-21T03:13:50.414Z,33.90
2019-02-21T03:16:39.895Z,32.30
2019-02-21T03:19:29.476Z,33.30
2019-02-21T03:22:18.715Z,36.40
2019-02-21T03:25:08.574Z,34.10
2019-02-21T03:27:58.167Z,35.40
2019-02-21T03:30:47.761Z,35.90
2019-02-21T03:33:37.127Z,33.53
2019-02-21T03:36:26.669Z,35.10
2019-02-21T03:39:16.223Z,36.30
2019-02-21T03:42:05.951Z,43.50
2019-02-21T03:44:55.239Z,43.83
2019-02-21T03:47:44.778Z,49.37
2019-02-21T03:50:34.264Z,40.33
2019-02-21T03:53:23.510Z,42.00
2019-02-21T03:56:12.952Z,40.33
2019-02-21T03:59:02.255Z,39.80
2019-02-21T04:01:51.480Z,37.80
2019-02-21T04:04:40.624Z,39.00
2019-02-21T04:07:30.335Z,36.17
2019-02-21T04:10:19.771Z,33.70
2019-02-21T04:13:09.142Z,33.77
2019-02-21T04:15:58.495Z,36.57
2019-02-21T04:18:47.811Z,35.80
2019-02-21T04:21:37.267Z,36.75
2019-02-21T04:24:26.603Z,36.37
2019-02-21T04:27:16.446Z,35.17
2019-02-21T04:30:06.281Z,38.73
2019-02-21T04:32:55.807Z,40.20
2019-02-21T04:35:45.392Z,42.00
2019-02-21T04:38:34.990Z,40.53
2019-02-21T04:41:24.261Z,40.25
2019-02-21T04:44:14.776Z,39.23
2019-02-21T04:47:04.734Z,41.13
2019-02-21T04:49:54.092Z,40.97
2019-02-21T04:52:43.397Z,42.73
2019-02-21T04:55:32.616Z,43.50
2019-02-21T04:58:21.912Z,41.23
2019-02-21T05:01:11.476Z,41.40
2019-02-21T05:04:00.905Z,41.70
2019-02-21T05:06:50.612Z,45.43
2019-02-21T05:09:40.186Z,47.17
2019-02-21T05:12:29.818Z,46.27
2019-02-21T05:15:19.123Z,48.52
2019-02-21T05:18:08.677Z,50.13
2019-02-21T05:20:58.200Z,47.50
2019-02-21T05:23:47.956Z,48.03
2019-02-21T05:26:44.189Z,53.50
2019-02-21T05:29:33.488Z,49.00
2019-02-21T05:32:41.096Z,49.73
2019-02-21T05:35:43.417Z,53.53
2019-02-21T05:38:54.689Z,51.53
2019-02-21T05:42:09.159Z,48.93
2019-02-21T05:45:21.008Z,50.00
2019-02-21T05:48:26.370Z,48.83
2019-02-21T05:51:30.193Z,49.27
2019-02-21T05:54:38.778Z,47.47
2019-02-21T05:57:37.600Z,45.27
2019-02-21T06:00:40.873Z,46.60
2019-02-21T06:03:42.549Z,46.43
2019-02-21T06:06:48.100Z,45.07
2019-02-21T06:09:56.317Z,43.40
2019-02-21T06:13:04.890Z,51.27
2019-02-21T06:16:13.348Z,47.50
2019-02-21T06:19:20.523Z,45.17
2019-02-21T06:22:28.715Z,43.90
2019-02-21T06:25:51.099Z,43.20
2019-02-21T06:28:48.483Z,45.20
2019-02-21T06:31:37.949Z,44.00
2019-02-21T06:34:27.506Z,46.37
2019-02-21T06:37:16.866Z,46.17
2019-02-21T06:40:06.375Z,49.40
2019-02-21T06:42:55.809Z,48.47
2019-02-21T06:45:45.052Z,50.93
2019-02-21T06:48:34.959Z,49.70
2019-02-21T06:51:24.265Z,50.53
2019-02-21T06:54:13.862Z,50.40
2019-02-21T06:57:03.459Z,51.80
2019-02-21T06:59:53.833Z,53.20
2019-02-21T07:02:43.239Z,54.43
2019-02-21T07:05:36.793Z,54.93
2019-02-21T07:08:25.311Z,53.97
2019-02-21T07:11:14.603Z,57.40
2019-02-21T07:14:04.213Z,59.90
2019-02-21T07:16:53.780Z,55.73
2019-02-21T07:19:43.342Z,60.33
2019-02-21T07:22:34.690Z,60.70
2019-02-21T07:25:37.457Z,58.40
2019-02-21T07:28:27.867Z,59.27
2019-02-21T07:31:28.172Z,61.80
2019-02-21T07:34:08.816Z,58.93
2019-02-21T07:36:58.425Z,58.90
2019-02-21T07:39:50.833Z,57.90
2019-02-21T07:42:39.888Z,59.73
2019-02-21T07:45:29.268Z,59.50
2019-02-21T07:48:19.167Z,60.27
2019-02-21T07:51:08.597Z,59.67
2019-02-21T07:53:58.070Z,62.87
2019-02-21T07:56:47.591Z,54.27
2019-02-21T07:59:37.229Z,57.93
2019-02-21T08:02:26.712Z,51.10
2019-02-21T08:05:16.315Z,52.03
2019-02-21T08:08:06.020Z,50.60
2019-02-21T08:10:55.332Z,47.60
2019-02-21T08:13:44.530Z,48.67
2019-02-21T08:16:33.831Z,46.80
2019-02-21T08:19:23.127Z,48.07
2019-02-21T08:22:12.618Z,47.97
2019-02-21T08:25:02.377Z,44.40
2019-02-21T08:27:52.002Z,47.87
2019-02-21T08:30:41.189Z,47.03
2019-02-21T08:33:40.191Z,48.77
2019-02-21T08:36:29.669Z,47.63
2019-02-21T08:39:19.273Z,44.58
2019-02-21T08:42:08.713Z,42.83
2019-02-21T08:44:58.031Z,44.83
2019-02-21T08:47:47.356Z,41.83
2019-02-21T08:50:37.024Z,41.53
2019-02-21T08:53:28.181Z,42.50
2019-02-21T08:56:18.009Z,40.73
2019-02-21T08:59:07.456Z,42.00
2019-02-21T09:01:56.639Z,41.20
2019-02-21T09:04:45.919Z,44.43
2019-02-21T09:07:35.235Z,41.23
2019-02-21T09:10:27.463Z,39.77
2019-02-21T09:13:15.834Z,38.73
2019-02-21T09:16:05.545Z,42.07
2019-02-21T09:18:55.272Z,41.13
2019-02-21T09:21:44.867Z,38.40
2019-02-21T09:24:39.976Z,39.13
2019-02-21T09:27:25.057Z,40.83
2019-02-21T09:30:16.533Z,39.07
2019-02-21T09:33:16.664Z,41.83
2019-02-21T09:35:57.109Z,41.67
2019-02-21T09:38:46.435Z,40.90
2019-02-21T09:41:36.169Z,40.30
2019-02-21T09:44:27.360Z,40.60
2019-02-21T09:47:16.544Z,40.43
2019-02-21T09:50:05.877Z,40.73
2019-02-21T09:52:55.121Z,42.80
2019-02-21T09:55:44.698Z,42.90
2019-02-21T09:58:34.908Z,42.97
2019-02-21T10:01:24.832Z,43.30
2019-02-21T10:04:14.419Z,43.13
2019-02-21T10:07:04.076Z,41.60
2019-02-21T10:09:53.523Z,42.23
2019-02-21T10:12:43.239Z,43.53
2019-02-21T10:15:32.548Z,44.25
2019-02-21T10:18:22.332Z,41.87
2019-02-21T10:21:12.665Z,40.65
2019-02-21T10:24:02.559Z,40.80
2019-02-21T10:26:51.867Z,43.17
2019-02-21T10:29:41.764Z,41.00
2019-02-21T10:32:31.170Z,40.20
2019-02-21T10:35:20.626Z,39.70
2019-02-21T10:38:10.276Z,42.57
2019-02-21T10:40:59.877Z,41.67
2019-02-21T10:43:49.412Z,41.07
2019-02-21T10:46:38.962Z,43.80
2019-02-21T10:49:28.475Z,40.70
2019-02-21T10:52:17.779Z,42.33
2019-02-21T10:55:07.686Z,43.50
2019-02-21T10:57:57.137Z,42.08
2019-02-21T11:00:46.563Z,43.90
2019-02-21T11:03:36.231Z,42.37
2019-02-21T11:06:25.611Z,40.77
2019-02-21T11:09:21.917Z,42.40
2019-02-21T11:12:11.952Z,41.03
2019-02-21T11:15:01.275Z,41.13
2019-02-21T11:17:50.895Z,40.40
2019-02-21T11:20:40.610Z,42.50
2019-02-21T11:23:30.116Z,40.95
2019-02-21T11:26:19.365Z,41.17
2019-02-21T11:29:09.296Z,42.43
2019-02-21T11:31:58.670Z,42.30
2019-02-21T11:34:47.902Z,43.13
2019-02-21T11:37:43.224Z,44.73
2019-02-21T11:40:28.123Z,42.05
2019-02-21T11:43:17.626Z,41.48
2019-02-21T11:46:07.691Z,38.80
2019-02-21T11:48:57.101Z,39.13
2019-02-21T11:51:48.157Z,38.83
2019-02-21T11:54:37.527Z,37.70
2019-02-21T11:57:27.643Z,38.93
2019-02-21T12:00:22.259Z,39.00
2019-02-21T12:03:11.575Z,35.17
2019-02-21T12:06:01.108Z,38.10
2019-02-21T12:08:50.532Z,36.13
2019-02-21T12:11:39.833Z,38.10
2019-02-21T12:14:29.124Z,35.33
2019-02-21T12:17:18.677Z,35.17
2019-02-21T12:20:10.230Z,34.83
2019-02-21T12:22:59.894Z,34.40
2019-02-21T12:25:49.461Z,36.10
2019-02-21T12:28:38.642Z,36.70
2019-02-21T12:31:28.163Z,34.83
2019-02-21T12:34:17.415Z,37.20
2019-02-21T12:37:07.273Z,37.07
2019-02-21T12:39:56.704Z,35.73
2019-02-21T12:42:46.285Z,33.87
2019-02-21T12:45:35.938Z,35.97
2019-02-21T12:48:25.446Z,34.10
2019-02-21T12:51:14.850Z,38.40
2019-02-21T12:54:04.217Z,36.30
2019-02-21T12:56:53.686Z,36.40
2019-02-21T12:59:43.309Z,35.63
2019-02-21T13:02:32.813Z,37.03
2019-02-21T13:05:22.500Z,37.17
2019-02-21T13:08:12.218Z,36.25
2019-02-21T13:11:01.594Z,35.20
2019-02-21T13:13:51.200Z,35.43
2019-02-21T13:16:40.798Z,37.13
2019-02-21T13:19:30.384Z,34.67
2019-02-21T13:22:20.524Z,34.60
2019-02-21T13:25:13.139Z,33.07
2019-02-21T13:28:02.999Z,34.30
2019-02-21T13:30:52.406Z,34.40
2019-02-21T13:33:41.912Z,31.60
2019-02-21T13:36:33.861Z,30.80
2019-02-21T13:39:22.520Z,32.73
2019-02-21T13:42:12.275Z,31.00
2019-02-21T13:45:01.494Z,31.60
2019-02-21T13:47:51.002Z,33.07
2019-02-21T13:50:40.559Z,29.93
2019-02-21T13:53:30.260Z,29.60
2019-02-21T13:56:19.946Z,30.82
2019-02-21T13:59:09.415Z,30.13
2019-02-21T14:01:59.247Z,27.30
2019-02-21T14:04:48.513Z,28.50
2019-02-21T14:07:37.844Z,29.57
2019-02-21T14:10:27.108Z,28.03
2019-02-21T14:13:16.422Z,28.70
2019-02-21T14:16:05.934Z,25.90
2019-02-21T14:18:55.448Z,29.17
2019-02-21T14:21:45.022Z,27.77
2019-02-21T14:24:37.186Z,28.50
2019-02-21T14:27:26.037Z,28.97
2019-02-21T14:30:17.071Z,30.80
2019-02-21T14:33:08.154Z,29.02
2019-02-21T14:35:57.717Z,29.27
2019-02-21T14:38:47.424Z,27.50
2019-02-21T14:41:36.767Z,29.97
2019-02-21T14:44:26.185Z,28.20
2019-02-21T14:47:15.374Z,28.40
2019-02-21T14:50:06.670Z,29.80
2019-02-21T14:52:55.978Z,27.67
2019-02-21T14:55:45.496Z,26.80
2019-02-21T14:58:35.063Z,28.60
2019-02-21T15:01:24.399Z,27.43
2019-02-21T15:04:14.096Z,29.73
2019-02-21T15:07:06.444Z,28.77
2019-02-21T15:09:54.923Z,29.10
2019-02-21T15:12:44.241Z,27.73
2019-02-21T15:15:33.541Z,29.20
2019-02-21T15:18:22.865Z,29.50
2019-02-21T15:21:14.881Z,29.10
2019-02-21T15:24:04.176Z,30.03
2019-02-21T15:26:53.631Z,31.30
2019-02-21T15:29:43.283Z,30.77
2019-02-21T15:32:32.414Z,29.50
2019-02-21T15:35:21.969Z,31.73
2019-02-21T15:38:19.628Z,30.03
2019-02-21T15:41:02.911Z,30.23
2019-02-21T15:43:52.402Z,25.33
2019-02-21T15:46:42.126Z,26.93
2019-02-21T15:49:33.512Z,27.57
2019-02-21T15:52:23.041Z,26.73
2019-02-21T15:55:13.666Z,27.25
2019-02-21T15:58:04.493Z,23.87
2019-02-21T16:00:54.176Z,24.57
2019-02-21T16:03:43.656Z,23.70
2019-02-21T16:06:33.338Z,24.90
2019-02-21T16:09:25.154Z,23.30
2019-02-21T16:12:14.630Z,24.35
2019-02-21T16:15:04.806Z,23.50
2019-02-21T16:17:54.393Z,24.80
2019-02-21T16:20:43.980Z,24.60
2019-02-21T16:23:33.609Z,24.13
2019-02-21T16:26:23.190Z,24.93
2019-02-21T16:29:13.101Z,24.03
2019-02-21T16:32:02.497Z,24.87
2019-02-21T16:34:52.002Z,28.10
2019-02-21T16:37:42.041Z,26.00
2019-02-21T16:40:31.452Z,27.48
2019-02-21T16:43:20.788Z,25.93
2019-02-21T16:46:10.233Z,27.30
2019-02-21T16:48:59.508Z,27.30
2019-02-21T16:51:49.132Z,26.17
2019-02-21T16:54:38.992Z,28.87
2019-02-21T16:57:28.329Z,28.55
2019-02-21T17:00:18.209Z,28.60
2019-02-21T17:03:07.656Z,33.70
2019-02-21T17:05:57.371Z,29.47
2019-02-21T17:08:46.915Z,28.93
2019-02-21T17:11:36.446Z,28.80
2019-02-21T17:14:26.404Z,27.63
2019-02-21T17:17:15.809Z,29.60
2019-02-21T17:20:06.535Z,28.60
2019-02-21T17:22:56.214Z,31.07
2019-02-21T17:25:47.704Z,32.60
2019-02-21T17:28:37.088Z,34.00
2019-02-21T17:31:28.323Z,32.08
2019-02-21T17:34:17.798Z,32.93
2019-02-21T17:37:07.211Z,34.10
2019-02-21T17:39:57.017Z,32.40
2019-02-21T17:42:46.670Z,33.07
2019-02-21T17:45:36.150Z,35.97
2019-02-21T17:48:25.718Z,34.45
2019-02-21T17:51:14.993Z,34.97
2019-02-21T17:54:04.661Z,35.60
2019-02-21T17:56:54.114Z,35.37
2019-02-21T17:59:43.948Z,33.37
2019-02-21T18:02:33.281Z,33.70
2019-02-21T18:05:22.539Z,34.50
2019-02-21T18:08:12.204Z,34.70
2019-02-21T18:11:02.148Z,34.60
2019-02-21T18:13:51.404Z,34.97
2019-02-21T18:16:41.176Z,35.00
2019-02-21T18:19:30.721Z,35.67
2019-02-21T18:22:20.009Z,35.83
2019-02-21T18:25:28.321Z,37.37
2019-02-21T18:28:17.719Z,37.80
2019-02-21T18:31:07.306Z,39.27
2019-02-21T18:33:56.567Z,37.60
2019-02-21T18:36:46.145Z,36.77
2019-02-21T18:39:35.916Z,38.03
2019-02-21T18:42:25.538Z,37.93
2019-02-21T18:45:15.102Z,35.80
2019-02-21T18:48:04.399Z,35.13
2019-02-21T18:50:53.990Z,34.67
2019-02-21T18:53:43.681Z,35.20
2019-02-21T18:56:33.268Z,37.93
2019-02-21T18:59:31.457Z,37.87
2019-02-21T19:02:16.112Z,39.97
2019-02-21T19:05:06.177Z,39.13
2019-02-21T19:08:03.296Z,39.27
2019-02-21T19:10:46.719Z,41.93
2019-02-21T19:13:37.150Z,64.50
2019-02-21T19:16:26.866Z,54.67
2019-02-21T19:19:16.391Z,45.47
2019-02-21T19:22:06.218Z,42.60
2019-02-21T19:24:55.918Z,41.92
2019-02-21T19:27:45.763Z,41.80
2019-02-21T19:30:48.486Z,43.30
2019-02-21T19:33:38.185Z,42.00
2019-02-21T19:36:27.550Z,39.90
2019-02-21T19:39:16.963Z,44.87
2019-02-21T19:42:06.508Z,41.50
2019-02-21T19:44:55.979Z,45.23
2019-02-21T19:47:45.694Z,44.03
2019-02-21T19:50:35.045Z,45.03
2019-02-21T19:53:24.334Z,47.07
2019-02-21T19:56:13.675Z,46.57
2019-02-21T19:59:02.995Z,56.60
2019-02-21T20:01:53.256Z,44.67
2019-02-21T20:04:42.702Z,40.00
2019-02-21T20:07:32.250Z,41.87
2019-02-21T20:10:21.886Z,43.33
2019-02-21T20:13:11.461Z,43.27
2019-02-21T20:16:00.790Z,40.17
2019-02-21T20:18:50.153Z,39.50
2019-02-21T20:21:39.714Z,40.00
2019-02-21T20:24:29.111Z,39.60
2019-02-21T20:27:18.702Z,38.33
2019-02-21T20:30:09.813Z,37.97
2019-02-21T20:32:59.407Z,38.30
2019-02-21T20:35:48.660Z,39.23
2019-02-21T20:38:38.202Z,37.93
2019-02-21T20:41:27.811Z,37.50
2019-02-21T20:44:19.231Z,39.90
2019-02-21T20:47:10.301Z,36.43
2019-02-21T20:49:59.545Z,39.53
2019-02-21T20:52:49.203Z,38.07
2019-02-21T20:55:43.664Z,38.90
2019-02-21T20:58:29.970Z,39.53
2019-02-21T21:01:20.375Z,37.80
2019-02-21T21:04:09.699Z,40.55
2019-02-21T21:06:59.109Z,39.10
2019-02-21T21:09:48.745Z,41.75
2019-02-21T21:12:38.029Z,41.17
2019-02-21T21:15:27.299Z,38.07
2019-02-21T21:18:16.658Z,38.13
2019-02-21T21:21:06.048Z,40.28
2019-02-21T21:23:55.304Z,39.27
2019-02-21T21:26:45.007Z,37.97
2019-02-21T21:29:36.148Z,38.10
2019-02-21T21:32:25.313Z,39.40
2019-02-21T21:35:14.645Z,40.13
2019-02-21T21:38:04.151Z,39.53
2019-02-21T21:40:53.730Z,38.77
2019-02-21T21:43:43.162Z,38.93
2019-02-21T21:46:32.739Z,40.67
2019-02-21T21:49:22.164Z,41.77
2019-02-21T21:52:11.495Z,39.40
2019-02-21T21:55:00.875Z,40.97
2019-02-21T21:57:50.124Z,41.57
2019-02-21T22:00:39.382Z,40.40
2019-02-21T22:03:28.805Z,41.17
2019-02-21T22:06:19.828Z,38.75
2019-02-21T22:09:09.288Z,40.97
2019-02-21T22:11:58.831Z,40.07
2019-02-21T22:14:48.327Z,40.80
2019-02-21T22:17:37.858Z,41.20
2019-02-21T22:20:27.470Z,37.77
2019-02-21T22:23:17.107Z,40.10
2019-02-21T22:26:06.530Z,39.10
2019-02-21T22:28:56.052Z,43.03
2019-02-21T22:31:45.674Z,41.17
2019-02-21T22:34:35.241Z,39.83
2019-02-21T22:37:24.704Z,38.60
2019-02-21T22:40:14.397Z,39.80
2019-02-21T22:43:03.915Z,38.60
2019-02-21T22:45:53.635Z,38.53
2019-02-21T22:48:47.414Z,38.20
2019-02-21T22:51:36.086Z,37.80
2019-02-21T22:54:25.383Z,39.00
2019-02-21T22:57:14.754Z,37.63
2019-02-21T23:00:06.082Z,36.23
2019-02-21T23:02:55.734Z,38.80
2019-02-21T23:06:08.525Z,35.70
2019-02-21T23:08:58.125Z,39.20
2019-02-21T23:11:47.600Z,37.80
2019-02-21T23:14:37.157Z,35.87
2019-02-21T23:17:26.703Z,36.63
2019-02-21T23:20:16.032Z,37.90
2019-02-21T23:23:05.583Z,35.63
2019-02-21T23:25:55.101Z,35.90
2019-02-21T23:28:44.342Z,35.60
2019-02-21T23:31:33.834Z,33.90
2019-02-21T23:34:33.354Z,35.40
2019-02-21T23:37:22.889Z,34.45
2019-02-21T23:40:12.462Z,33.60
2019-02-21T23:43:01.921Z,32.37
2019-02-21T23:45:51.207Z,34.63
2019-02-21T23:48:40.807Z,33.37
2019-02-21T23:51:30.071Z,32.27
2019-02-21T23:54:19.364Z,34.50
2019-02-21T23:57:08.842Z,32.53
2019-02-21T23:59:58.209Z,29.90
